sensor_id;sensor_type;location;lat;lon;timestamp;P1;durP1;ratioP1;P2;durP2;ratioP2
39082;SDS011;24834;44.444;26.098;2023-01-10T00:02:58;43.25;;;39.50;;
39082;SDS011;24834;44.444;26.098;2023-01-10T00:09:01;48.25;;;41.50;;
39082;SDS011;24834;44.444;26.098;2023-01-10T00:15:05;45.75;;;35.00;;
39082;SDS011;24834;44.444;26.098;2023-01-10T00:21:08;56.50;;;45.25;;
39082;SDS011;24834;44.444;26.098;2023-01-10T00:27:11;39.00;;;36.25;;
39082;SDS011;24834;44.444;26.098;2023-01-10T00:33:22;47.75;;;34.75;;
39082;SDS011;24834;44.444;26.098;2023-01-10T00:39:25;45.50;;;40.25;;
39082;SDS011;24834;44.444;26.098;2023-01-10T00:45:28;45.00;;;39.75;;
39082;SDS011;24834;44.444;26.098;2023-01-10T00:51:31;49.00;;;43.00;;
39082;SDS011;24834;44.444;26.098;2023-01-10T00:57:34;35.25;;;32.00;;
39082;SDS011;24834;44.444;26.098;2023-01-10T01:03:39;48.25;;;40.00;;
39082;SDS011;24834;44.444;26.098;2023-01-10T01:09:41;44.00;;;33.50;;
39082;SDS011;24834;44.444;26.098;2023-01-10T01:16:03;51.00;;;39.25;;
39082;SDS011;24834;44.444;26.098;2023-01-10T01:22:06;37.75;;;32.25;;
39082;SDS011;24834;44.444;26.098;2023-01-10T01:28:12;46.50;;;39.50;;
39082;SDS011;24834;44.444;26.098;2023-01-10T01:34:15;50.75;;;36.75;;
39082;SDS011;24834;44.444;26.098;2023-01-10T01:40:18;29.50;;;26.50;;
39082;SDS011;24834;44.444;26.098;2023-01-10T01:46:22;39.00;;;34.25;;
39082;SDS011;24834;44.444;26.098;2023-01-10T01:52:26;38.00;;;32.00;;
39082;SDS011;24834;44.444;26.098;2023-01-10T01:58:36;38.50;;;29.75;;
39082;SDS011;24834;44.444;26.098;2023-01-10T02:11:05;42.50;;;37.75;;
39082;SDS011;24834;44.444;26.098;2023-01-10T02:17:10;48.75;;;43.75;;
39082;SDS011;24834;44.444;26.098;2023-01-10T02:29:59;66.50;;;53.00;;
39082;SDS011;24834;44.444;26.098;2023-01-10T02:42:41;74.25;;;59.75;;
39082;SDS011;24834;44.444;26.098;2023-01-10T02:48:53;74.00;;;54.50;;
39082;SDS011;24834;44.444;26.098;2023-01-10T02:54:58;60.00;;;46.00;;
39082;SDS011;24834;44.444;26.098;2023-01-10T03:01:19;53.50;;;47.25;;
39082;SDS011;24834;44.444;26.098;2023-01-10T03:13:56;48.00;;;41.00;;
39082;SDS011;24834;44.444;26.098;2023-01-10T03:20:03;90.00;;;67.75;;
39082;SDS011;24834;44.444;26.098;2023-01-10T03:26:06;96.33;;;74.67;;
39082;SDS011;24834;44.444;26.098;2023-01-10T03:32:10;95.33;;;73.00;;
39082;SDS011;24834;44.444;26.098;2023-01-10T03:38:24;69.75;;;54.75;;
39082;SDS011;24834;44.444;26.098;2023-01-10T03:51:06;47.00;;;41.25;;
39082;SDS011;24834;44.444;26.098;2023-01-10T03:57:14;58.75;;;47.50;;
39082;SDS011;24834;44.444;26.098;2023-01-10T04:03:24;60.00;;;50.25;;
39082;SDS011;24834;44.444;26.098;2023-01-10T04:09:27;45.75;;;41.25;;
39082;SDS011;24834;44.444;26.098;2023-01-10T04:15:31;44.75;;;42.25;;
39082;SDS011;24834;44.444;26.098;2023-01-10T04:21:34;46.67;;;44.33;;
39082;SDS011;24834;44.444;26.098;2023-01-10T04:27:38;51.50;;;44.25;;
39082;SDS011;24834;44.444;26.098;2023-01-10T04:33:42;73.00;;;60.00;;
39082;SDS011;24834;44.444;26.098;2023-01-10T04:39:44;75.50;;;58.50;;
39082;SDS011;24834;44.444;26.098;2023-01-10T04:45:47;62.75;;;50.25;;
39082;SDS011;24834;44.444;26.098;2023-01-10T04:52:01;49.00;;;38.00;;
39082;SDS011;24834;44.444;26.098;2023-01-10T04:58:04;61.50;;;49.00;;
39082;SDS011;24834;44.444;26.098;2023-01-10T05:04:07;57.25;;;49.50;;
